Latest Weather Observations for Cooktown

IDQ60801

Issued at 7:02 am EST Thursday 2 April 2015 (issued every 30 minutes, with the page automatically refreshed every 10 minutes)

About weather observations | Map of weather stations | Latest weather observations for QLD | Other Formats
Station Details ID: 031209 Name: COOKTOWN AIRPORT Lat: -15.45 Lon: 145.19 Height: 4.8 m
Data from the previous 72 hours. | See also: Recent months at Cooktown
Date/Time
EST
Temp
°C
App
Temp
°C
Dew
Point
Rel
Hum
%
Delta-T
°C
Wind Press
QNH
hPa
Press
MSL
hPa
Rain
since 9 am
mm
Dir
 
Spd
km/h
Gust
km/h
Spd
kts
Gust
kts
02/07:00am 26.4 29.5 22.9 81 2.4 ESE 11 17 6 9 1011.6 - 0.0
02/06:30am 25.8 28.8 22.7 83 2.1 SE 11 17 6 9 1011.2 - 0.0
02/06:00am 26.0 28.5 22.4 80 2.4 ESE 13 17 7 9 1010.8 1010.6 0.0
02/05:30am 26.0 28.6 22.6 81 2.3 SE 13 19 7 10 1010.5 - 0.0
02/05:00am 26.2 28.8 22.6 80 2.4 SE 13 19 7 10 1010.1 - 0.0
02/04:30am 26.2 28.8 22.6 80 2.4 ESE 13 19 7 10 1009.9 - 0.0
02/04:00am 26.3 28.5 22.6 80 2.5 ESE 15 24 8 13 1009.8 - 0.0
02/03:30am 26.6 28.0 22.6 78 2.7 ESE 19 26 10 14 1009.8 - 0.0
02/03:00am 26.4 28.7 22.7 80 2.5 ESE 15 22 8 12 1009.9 1009.8 0.0
02/02:30am 26.3 28.5 22.6 80 2.5 ESE 15 20 8 11 1010.1 - 0.0
02/02:00am 26.6 28.8 22.6 78 2.7 ESE 15 20 8 11 1010.4 - 0.0
02/01:30am 26.4 28.4 23.0 81 2.3 ESE 17 26 9 14 1010.8 - 0.0
02/01:00am 26.7 28.7 22.9 79 2.6 ESE 17 26 9 14 1011.1 - 0.0
02/12:30am 26.9 28.3 22.8 78 2.8 ESE 20 28 11 15 1011.5 - 0.0
02/12:00am 26.7 28.4 22.4 77 2.9 ESE 17 26 9 14 1011.9 1011.8 0.0
 
Date/Time
EST
Temp
°C
App
Temp
°C
Dew
Point
Rel
Hum
%
Delta-T
°C
Wind Press
QNH
hPa
Press
MSL
hPa
Rain
since 9 am
mm
Dir
 
Spd
km/h
Gust
km/h
Spd
kts
Gust
kts
01/11:30pm 26.6 28.2 22.1 76 3.0 ESE 17 28 9 15 1012.1 - 0.0
01/11:00pm 26.5 28.8 22.7 79 2.6 ESE 15 19 8 10 1012.3 - 0.0
01/10:30pm 26.6 28.6 22.9 80 2.5 ESE 17 26 9 14 1012.3 - 0.0
01/10:00pm 26.8 29.1 23.4 81 2.3 ESE 17 26 9 14 1012.2 - 0.0
01/09:30pm 26.8 27.7 22.7 78 2.8 ESE 22 32 12 17 1012.1 - 0.0
01/09:00pm 26.7 28.1 22.9 79 2.6 ESE 20 32 11 17 1011.9 1011.8 0.0
01/08:30pm 26.5 28.6 23.1 81 2.3 SE 17 28 9 15 1011.7 - 0.0
01/08:00pm 26.7 29.5 23.6 83 2.1 ESE 15 22 8 12 1011.2 - 0.0
01/07:30pm 26.6 29.3 23.5 83 2.1 ESE 15 24 8 13 1010.9 - 0.0
01/07:00pm 26.6 29.0 23.7 84 2.0 ESE 17 22 9 12 1010.6 - 0.0
01/06:30pm 26.6 29.4 23.7 84 2.0 ESE 15 22 8 12 1010.6 - 0.0
01/06:00pm 26.9 28.8 23.5 81 2.3 ESE 19 28 10 15 1010.5 1010.4 0.0
01/05:30pm 27.5 29.4 23.4 78 2.8 ESE 19 30 10 16 1010.5 - 0.0
01/05:00pm 28.0 28.8 22.5 72 3.7 ESE 22 35 12 19 1010.2 - 0.0
01/04:30pm 28.6 28.8 22.7 70 4.0 ESE 26 37 14 20 1010.1 - 0.0
01/04:00pm 28.7 29.0 22.2 68 4.4 ESE 24 35 13 19 1010.0 - 0.0
01/03:30pm 28.7 28.7 21.7 66 4.7 SE 24 39 13 21 1010.1 - 0.0
01/03:00pm 28.6 28.3 21.8 66 4.6 ESE 26 41 14 22 1010.3 1010.1 0.0
01/02:30pm 29.3 29.6 23.0 69 4.3 ESE 26 35 14 19 1010.5 - 0.0
01/02:00pm 29.9 30.0 22.6 65 5.0 ESE 26 35 14 19 1010.7 - 0.0
01/01:30pm 28.9 28.4 22.1 66 4.6 ESE 28 41 15 22 1011.0 - 0.0
01/01:00pm 28.8 28.6 22.0 66 4.6 ESE 26 43 14 23 1011.2 - 0.0
01/12:30pm 29.4 29.2 22.0 64 5.0 SE 26 41 14 22 1011.5 - 0.0
01/12:12pm 29.4 28.7 21.8 63 5.1 ESE 28 46 15 25 1011.9 - 0.0
01/12:00pm 29.4 29.3 22.2 65 4.9 SE 26 43 14 23 1012.0 1012.0 0.0
01/11:30am 28.9 28.1 21.6 64 4.9 SE 28 39 15 21 1012.6 - 0.0
01/11:00am 29.9 30.2 23.0 66 4.7 ESE 26 41 14 22 1013.1 - 0.0
01/10:30am 28.6 28.0 21.9 67 4.5 ESE 28 41 15 22 1013.6 - 0.0
01/10:00am 28.3 27.9 21.6 67 4.5 ESE 26 37 14 20 1013.5 - 0.0
01/09:30am 28.2 28.4 22.1 69 4.1 SE 24 35 13 19 1013.6 - 0.0
01/09:00am 27.1 27.3 21.4 71 3.8 SE 22 39 12 21 1013.6 1013.5 0.8
01/08:30am 27.7 28.6 21.9 70 3.9 SE 20 37 11 20 1013.3 - 0.8
01/08:00am 27.3 27.8 21.1 69 4.1 SE 20 39 11 21 1012.9 - 0.8
01/07:30am 26.9 27.5 21.3 71 3.7 SE 20 35 11 19 1012.6 - 0.8
01/07:00am 26.9 27.5 21.3 71 3.7 SE 20 35 11 19 1012.4 - 0.8
01/06:30am 26.7 27.2 21.1 71 3.7 SE 20 32 11 17 1012.0 - 0.8
01/06:00am 26.4 27.3 20.9 72 3.6 SE 17 30 9 16 1011.8 1011.7 0.8
01/05:30am 26.3 27.0 21.2 73 3.4 ESE 19 26 10 14 1011.6 - 0.8
01/05:00am 26.5 26.6 21.1 72 3.6 SE 22 44 12 24 1011.2 - 0.8
01/04:30am 26.5 27.3 20.7 70 3.8 SE 17 35 9 19 1011.1 - 0.8
01/04:00am 26.4 28.0 21.4 74 3.3 SE 15 28 8 15 1011.1 - 0.8
01/03:30am 26.3 28.0 21.6 75 3.1 SE 15 24 8 13 1011.2 - 0.8
01/03:00am 26.1 28.8 22.2 79 2.6 SE 11 20 6 11 1011.5 1011.4 0.8
01/02:30am 26.6 27.8 21.5 73 3.4 SE 17 26 9 14 1011.8 - 0.8
01/02:00am 26.8 27.8 21.1 71 3.8 SE 17 26 9 14 1012.0 - 0.8
01/01:30am 26.9 27.8 21.5 72 3.6 SE 19 33 10 18 1012.5 - 0.8
01/01:00am 26.9 28.3 21.8 73 3.4 SE 17 28 9 15 1012.9 - 0.8
01/12:30am 26.9 28.1 21.5 72 3.6 SE 17 28 9 15 1013.2 - 0.8
01/12:00am 27.0 27.4 20.9 69 4.0 SE 20 32 11 17 1013.7 1013.6 0.8
 
Date/Time
EST
Temp
°C
App
Temp
°C
Dew
Point
Rel
Hum
%
Delta-T
°C
Wind Press
QNH
hPa
Press
MSL
hPa
Rain
since 9 am
mm
Dir
 
Spd
km/h
Gust
km/h
Spd
kts
Gust
kts
31/11:30pm 27.0 27.2 20.6 68 4.2 SE 20 39 11 21 1013.9 - 0.8
31/11:00pm 27.1 26.9 20.6 67 4.3 SE 22 33 12 18 1013.9 - 0.8
31/10:30pm 26.9 28.1 21.5 72 3.6 SE 17 24 9 13 1013.9 - 0.8
31/10:00pm 27.0 27.8 21.3 71 3.8 ESE 19 32 10 17 1013.9 - 0.8
31/09:30pm 27.1 27.9 21.4 71 3.8 ESE 19 28 10 15 1013.9 - 0.8
31/09:00pm 27.0 27.8 21.3 71 3.8 SE 19 30 10 16 1013.8 1013.7 0.8
31/08:30pm 27.0 27.6 21.4 71 3.7 ESE 20 33 11 18 1013.6 - 0.8
31/08:00pm 27.1 28.7 22.2 74 3.3 ESE 17 28 9 15 1013.3 - 0.8
31/07:30pm 27.0 28.7 22.4 76 3.1 ESE 17 24 9 13 1013.1 - 0.8
31/07:00pm 26.8 28.6 21.2 71 3.7 ESE 13 20 7 11 1012.9 - 0.8
31/06:30pm 27.0 27.9 20.9 69 4.0 SE 17 28 9 15 1012.5 - 0.8
31/06:00pm 27.1 28.0 21.9 73 3.5 ESE 20 30 11 16 1012.2 1012.1 0.8
31/05:30pm 27.0 28.8 23.2 80 2.6 ESE 19 32 10 17 1012.0 - 0.8
31/05:00pm 27.0 28.7 23.0 79 2.7 ESE 19 28 10 15 1011.9 - 0.8
31/04:30pm 25.9 29.3 24.0 89 1.3 E 13 20 7 11 1011.8 - 0.8
31/04:27pm 25.9 28.9 24.0 89 1.3 E 15 24 8 13 1011.7 - 0.8
31/04:10pm 25.4 26.2 23.8 91 1.1 ESE 26 39 14 21 1011.8 - 0.8
31/04:01pm 27.3 29.2 23.8 81 2.4 ESE 20 33 11 18 1011.6 - 0.8
31/04:00pm 27.2 28.7 23.7 81 2.4 ESE 22 33 12 18 1011.5 - 0.8
31/03:30pm 25.7 26.9 23.8 89 1.3 E 24 35 13 19 1011.8 - 0.8
31/03:00pm - - - - - ESE 28 41 15 22 1011.8 - 0.8
31/02:06pm 28.0 30.0 23.9 78 2.8 ESE 20 28 11 15 1012.3 - 0.4
31/02:04pm 28.0 29.7 24.1 79 2.7 ESE 22 28 12 15 1012.3 - 0.4
31/02:01pm 27.9 29.5 23.8 78 2.8 ESE 22 30 12 16 1012.3 - 0.4
31/02:00pm 28.0 29.7 24.1 79 2.7 ESE 22 30 12 16 1012.3 - 0.4
31/01:30pm 27.4 29.1 24.7 85 1.9 ESE 24 32 13 17 1012.6 - 0.4
31/01:23pm 27.4 29.6 24.8 86 1.8 ESE 22 32 12 17 1012.6 - 0.4
31/01:09pm 26.9 27.6 24.9 89 1.4 E 30 44 16 24 1012.7 - 0.4
31/01:00pm 28.7 31.4 25.0 80 2.6 ESE 20 30 11 16 1012.8 - 0.0
31/12:45pm 28.6 29.8 23.8 75 3.3 ESE 24 37 13 20 1012.9 - 0.0
31/12:30pm 28.8 30.8 24.0 75 3.3 ESE 20 32 11 17 1013.2 - 0.0
31/12:00pm 30.1 31.1 24.2 70 4.1 ESE 26 43 14 23 1013.7 1013.7 0.0
31/11:30am 29.3 30.5 23.8 72 3.8 ESE 24 39 13 21 1014.3 - 0.0
31/11:00am 29.6 30.5 24.0 72 3.9 E 26 43 14 23 1014.7 - 0.0
31/10:30am 28.3 30.0 24.0 77 3.0 ESE 22 33 12 18 1014.9 - 0.0
31/10:00am 28.8 29.5 23.7 74 3.5 ESE 26 35 14 19 1015.0 - 0.0
31/09:30am 28.8 29.1 22.9 70 4.0 ESE 26 41 14 22 1014.9 - 0.0
31/09:00am 28.3 30.1 23.5 75 3.3 ESE 20 39 11 21 1014.8 1014.7 6.8
31/08:30am 28.8 30.9 23.7 74 3.5 ESE 19 32 10 17 1014.5 - 6.8
31/08:00am 28.1 29.4 23.4 75 3.2 ESE 22 33 12 18 1014.2 - 6.8
31/07:30am 26.7 29.4 23.5 82 2.2 SE 15 22 8 12 1014.0 - 6.8
31/07:14am 26.2 29.2 23.4 84 1.9 SSE 13 22 7 12 1013.8 - 6.8
31/07:04am 26.3 28.3 22.9 81 2.3 SE 17 28 9 15 1013.7 - 6.8
31/07:00am 26.4 28.4 22.9 81 2.4 SE 17 28 9 15 1013.6 - 6.8
31/06:52am 26.3 27.4 22.4 79 2.6 SE 20 35 11 19 1013.6 - 6.8
31/06:37am 26.4 29.4 23.3 83 2.1 SE 13 24 7 13 1013.3 - 6.8
31/06:34am 26.3 29.0 23.4 84 2.0 SE 15 24 8 13 1013.3 - 6.8
31/06:30am 26.4 29.3 23.2 82 2.2 SE 13 24 7 13 1013.2 - 6.8
31/06:18am 26.4 29.3 23.2 82 2.2 SSE 13 22 7 12 1013.1 - 6.8
31/06:00am 26.3 28.8 23.2 83 2.1 SE 15 19 8 10 1013.0 1012.9 6.8
31/05:30am 26.4 29.4 23.3 83 2.1 SE 13 22 7 12 1012.8 - 6.8
31/05:00am 26.3 29.0 23.4 84 2.0 SE 15 28 8 15 1012.6 - 6.8
31/04:30am 26.2 28.8 23.3 84 2.0 ESE 15 22 8 12 1012.4 - 6.8
31/04:00am 26.1 28.8 23.5 85 1.8 SE 15 26 8 14 1012.4 - 6.8
31/03:30am 26.1 28.0 23.5 85 1.8 ESE 19 32 10 17 1012.5 - 6.8
31/03:00am 25.7 27.6 23.5 88 1.5 ESE 19 28 10 15 1012.7 1012.6 6.8
31/02:30am 26.4 28.6 23.2 82 2.2 SE 17 28 9 15 1012.9 - 6.2
31/02:00am 26.1 28.4 23.5 85 1.8 ESE 17 30 9 16 1013.1 - 6.2
31/01:30am 25.8 28.6 23.6 88 1.5 SE 15 26 8 14 1013.5 - 6.2
31/01:02am 25.5 29.2 23.9 91 1.1 SE 11 17 6 9 1013.9 - 6.2
31/01:00am 25.5 29.2 23.9 91 1.1 SE 11 17 6 9 1013.9 - 6.2
31/12:34am 25.0 28.4 24.0 94 0.7 ESE 13 22 7 12 1014.5 - 6.2
31/12:30am 24.9 27.8 23.9 94 0.7 E 15 24 8 13 1014.5 - 6.2
31/12:04am 24.6 30.0 23.9 96 0.5 S 2 7 1 4 1014.8 - 5.4
31/12:00am 24.6 29.1 23.9 96 0.5 SSW 7 11 4 6 1014.9 1014.7 4.8
 
Date/Time
EST
Temp
°C
App
Temp
°C
Dew
Point
Rel
Hum
%
Delta-T
°C
Wind Press
QNH
hPa
Press
MSL
hPa
Rain
since 9 am
mm
Dir
 
Spd
km/h
Gust
km/h
Spd
kts
Gust
kts
30/11:54pm 24.5 29.1 23.8 96 0.5 S 6 11 3 6 1014.9 - 4.8
30/11:44pm 24.4 29.3 23.7 96 0.5 SE 4 7 2 4 1015.0 - 4.8
30/11:38pm 24.3 28.6 23.6 96 0.5 ESE 7 13 4 7 1015.0 - 4.8
30/11:30pm 24.3 27.8 23.6 96 0.5 E 11 17 6 9 1015.2 - 4.8
30/11:20pm 24.3 26.4 23.7 96 0.4 E 19 28 10 15 1015.4 - 4.6
30/11:14pm 24.3 26.1 23.6 96 0.5 E 20 32 11 17 1015.4 - 4.4
30/11:00pm 24.3 25.0 23.6 96 0.5 E 26 43 14 23 1015.5 - 3.8
30/10:59pm 24.2 24.8 23.5 96 0.5 E 26 43 14 23 1015.5 - 3.8
30/10:46pm 24.7 24.1 23.7 94 0.7 E 33 52 18 28 1015.4 - 1.4
30/10:44pm 24.9 23.7 23.9 94 0.7 E 37 52 20 28 1015.5 - 1.0
30/10:43pm 25.3 23.6 23.8 91 1.0 E 39 52 21 28 1015.5 - 0.0
30/10:30pm 26.3 28.6 23.5 84 1.9 ESE 17 24 9 13 1015.2 - 0.0
30/10:00pm 27.4 28.7 22.7 75 3.2 SE 20 30 11 16 1015.4 - 0.0
30/09:30pm 27.2 28.6 22.6 76 3.1 SE 19 30 10 16 1015.3 - 0.0
30/09:00pm 27.1 29.8 22.8 77 2.9 SE 13 19 7 10 1015.2 1015.1 0.0
30/08:30pm 27.1 29.5 23.0 78 2.8 SE 15 24 8 13 1014.9 - 0.0
30/08:00pm 27.1 28.8 22.3 75 3.2 SE 17 24 9 13 1014.7 - 0.0
30/07:30pm 27.1 29.4 22.7 77 3.0 SE 15 22 8 12 1014.4 - 0.0
30/07:00pm 27.2 29.3 22.5 75 3.2 SE 15 22 8 12 1014.2 - 0.0
30/06:30pm 27.1 29.0 22.7 77 3.0 SE 17 28 9 15 1013.9 - 0.0
30/06:00pm 27.4 29.7 22.7 75 3.2 SE 15 24 8 13 1013.8 1013.7 0.0
30/05:30pm 27.8 29.1 22.3 72 3.7 SE 19 33 10 18 1013.7 - 0.0
30/05:00pm 27.8 28.6 21.8 70 4.0 SE 20 35 11 19 1013.7 - 0.0
30/04:30pm 28.2 28.9 22.3 70 4.0 SE 22 35 12 19 1013.5 - 0.0
30/04:00pm 27.9 28.1 22.1 70 3.9 ESE 24 41 13 22 1013.3 - 0.0
30/03:30pm 28.7 29.5 22.5 69 4.2 SE 22 41 12 22 1013.3 - 0.0
30/03:00pm 28.1 27.5 22.0 69 4.1 ESE 28 39 15 21 1013.3 1013.2 0.0
30/02:48pm 28.4 27.5 22.2 69 4.2 ESE 30 48 16 26 1013.3 - 0.0
30/02:30pm 29.0 28.2 22.4 67 4.5 SE 30 43 16 23 1013.2 - 0.0
30/02:10pm 28.7 28.2 22.2 68 4.4 ESE 28 46 15 25 1013.4 - 0.0
30/02:00pm 29.1 28.5 22.6 68 4.4 ESE 30 43 16 23 1013.4 - 0.0
30/01:35pm 28.9 28.2 21.8 65 4.8 ESE 28 52 15 28 1013.7 - 0.0
30/01:30pm 29.1 28.6 22.1 66 4.7 ESE 28 39 15 21 1013.9 - 0.0
30/01:00pm 29.1 29.2 22.6 68 4.4 ESE 26 46 14 25 1014.2 - 0.0
30/12:30pm 28.4 28.6 22.7 71 3.9 ESE 26 41 14 22 1014.5 - 0.0
30/12:00pm 28.7 28.4 22.5 69 4.2 ESE 28 41 15 22 1014.8 1014.8 0.0
30/11:30am 28.6 28.7 23.2 72 3.7 ESE 28 44 15 24 1015.4 - 0.0
30/11:00am 29.1 29.6 23.3 71 4.0 ESE 26 41 14 22 1015.7 - 0.0
30/10:30am 28.5 28.0 22.9 71 3.8 ESE 30 41 16 22 1015.8 - 0.0
30/10:00am 28.2 29.5 22.3 70 4.0 ESE 19 28 10 15 1015.8 - 0.0
30/09:30am 27.3 28.2 21.9 72 3.6 ESE 20 30 11 16 1015.9 - 0.0
30/09:04am 25.8 25.2 22.7 83 2.1 ESE 30 48 16 26 1016.0 - 0.0
30/09:00am 25.8 24.4 22.2 80 2.4 ESE 33 48 18 26 1016.1 - 32.6
30/08:30am 27.8 27.8 21.0 66 4.5 ESE 22 39 12 21 1015.5 - 32.6
30/08:00am 27.6 27.8 21.4 69 4.1 SE 22 39 12 21 1015.0 - 32.6
30/07:30am 27.3 27.1 21.3 69 4.0 ESE 24 35 13 19 1014.7 - 32.6

Other Formats:

Comma delimited format used in spreadsheet applications
http://www.bom.gov.au/fwo/IDQ60801/IDQ60801.95283.axf

JavaScript Object Notation format (JSON) in row-major order
http://www.bom.gov.au/fwo/IDQ60801/IDQ60801.95283.json